Latest Coastal Weather Observations for Troughton Island

IDD60701

Issued at 7:51 pm CST Saturday 22 February 2020 (issued every 10 minutes, with the page automatically refreshed every 10 minutes)

About coastal observations | Map of coastal stations | Coastal observations for NT | Marine services | Other Formats
Station Details ID: 001007 Name: TROUGHTON ISLAND Lat: -13.75 Lon: 126.15 Height: 6.0 m
Data from the previous 72 hours. | See also: Recent months at Troughton Island
Date/Time
CST
Wind Sea
Height
m
Swell Vis
km
Cloud Weather Temp
°C
Press
hPa
Rain since
9am
mm
Dir  Spd
kts
Gust
kts
Height
m
Period
s
Dir
22/07:30pm W 18 21 - - - - - - - 29.9 1007.5 0.0
22/07:00pm W 18 23 - - - - - - - 30.3 1007.1 0.0
22/06:30pm W 19 23 - - - - - - - 30.9 1007.0 0.0
22/06:00pm W 18 22 - - - - - - - 31.2 1006.8 0.0
22/05:30pm W 19 22 - - - - - - - 31.8 1007.1 0.0
22/05:00pm W 19 22 - - - - - - - 31.9 1007.3 0.0
22/04:30pm W 19 22 - - - - - - - 32.1 1007.6 0.0
22/04:00pm W 18 21 - - - - - - - 32.0 1007.8 0.0
22/03:30pm W 18 22 - - - - - - - 31.8 1008.2 0.0
22/03:00pm W 17 20 - - - - - - - 32.3 1008.4 0.0
22/02:30pm W 15 19 - - - - - - - 32.8 1008.7 0.0
22/02:00pm W 15 18 - - - - - - - 32.4 1009.0 0.0
22/01:30pm WSW 16 18 - - - - - - - 32.0 1009.3 0.0
22/01:00pm WSW 16 18 - - - - - - - 32.1 1009.8 0.0
22/12:30pm WSW 16 18 - - - - - - - 32.2 1010.1 0.0
22/12:00pm WSW 15 17 - - - - - - - 31.9 1010.3 0.0
22/11:30am WSW 15 18 - - - - - - - 32.0 1010.4 0.0
22/11:00am WSW 16 18 - - - - - - - 32.0 1010.7 0.0
22/10:30am WSW 15 18 - - - - - - - 31.5 1010.6 0.0
22/10:00am WSW 15 18 - - - - - - - 31.2 1010.5 0.0
22/09:30am W 16 19 - - - - - - - 30.3 1010.4 0.0
22/09:00am WSW 16 18 - - - - - - - 30.2 1010.2 0.0
22/08:30am WSW 15 18 - - - - - - - 29.5 1009.9 0.0
22/08:00am W 15 17 - - - - - - - 29.1 1009.7 0.0
22/07:30am WSW 15 18 - - - - - - - 29.0 1009.5 0.0
22/07:00am WSW 14 18 - - - - - - - 28.8 1009.2 0.0
22/06:30am WSW 15 17 - - - - - - - 28.9 1009.1 0.0
22/06:00am WSW 16 19 - - - - - - - 29.1 1008.9 0.0
22/05:30am WSW 17 19 - - - - - - - 29.0 1008.7 0.0
22/05:00am WSW 17 20 - - - - - - - 29.1 1009.0 0.0
22/04:30am WSW 17 20 - - - - - - - 29.1 1009.1 0.0
22/04:00am WSW 19 22 - - - - - - - 29.2 1009.3 0.0
22/03:30am WSW 18 21 - - - - - - - 29.4 1009.5 0.0
22/03:00am WSW 18 21 - - - - - - - 29.3 1009.7 0.0
22/02:30am WSW 19 22 - - - - - - - 29.4 1010.0 0.0
22/02:00am W 17 21 - - - - - - - 29.4 1010.2 0.0
22/01:30am W 18 21 - - - - - - - 29.3 1010.5 0.0
22/01:00am W 17 21 - - - - - - - 29.5 1011.0 0.0
22/12:30am W 17 20 - - - - - - - 29.5 1011.3 0.0
22/12:00am W 17 21 - - - - - - - 29.5 1011.5 0.0
 
Date/Time
CST
Wind Sea
Height
m
Swell Vis
km
Cloud Weather Temp
°C
Press
hPa
Rain since
9am
mm
Dir  Spd
kts
Gust
kts
Height
m
Period
s
Dir
21/11:30pm W 19 21 - - - - - - - 29.5 1011.5 0.0
21/11:00pm W 17 20 - - - - - - - 29.6 1011.4 0.0
21/10:30pm W 15 19 - - - - - - - 29.5 1011.3 0.0
21/10:00pm W 14 18 - - - - - - - 29.6 1011.2 0.0
21/09:30pm W 14 16 - - - - - - - 29.6 1011.0 0.0
21/09:00pm W 15 17 - - - - - - - 29.6 1010.6 0.0
21/08:30pm W 14 16 - - - - - - - 29.6 1009.9 0.0
21/08:00pm W 13 16 - - - - - - - 29.7 1009.5 0.0
21/07:30pm W 14 16 - - - - - - - 29.8 1008.9 0.0
21/07:00pm W 14 17 - - - - - - - 30.1 1008.4 0.0
21/06:30pm W 14 16 - - - - - - - 30.5 1008.3 0.0
21/06:00pm W 13 15 - - - - - - - 30.9 1007.9 0.0
21/05:30pm W 14 16 - - - - - - - 31.1 1007.7 0.0
21/05:00pm W 13 15 - - - - - - - 31.1 1008.0 0.0
21/04:30pm W 12 14 - - - - - - - 31.5 1008.2 0.0
21/04:00pm W 12 15 - - - - - - - 31.5 1008.5 0.0
21/03:30pm W 13 15 - - - - - - - 32.2 1008.8 0.0
21/03:00pm W 13 16 - - - - - - - 31.6 1009.0 0.0
21/02:30pm W 11 13 - - - - - - - 31.5 1009.2 0.0
21/02:00pm WSW 7 9 - - - - - - - 30.8 1009.6 0.0
21/01:30pm W 7 9 - - - - - - - 30.6 1009.9 0.0
21/01:00pm WNW 6 8 - - - - - - - 30.7 1010.3 0.0
21/12:30pm WNW 7 8 - - - - - - - 30.8 1010.7 0.0
21/12:00pm SW 7 8 - - - - - - - 31.1 1010.6 0.0
21/11:30am SSW 6 7 - - - - - - - 29.5 1011.0 0.0
21/11:00am S 6 7 - - - - - - - 30.5 1011.0 0.0
21/10:30am S 5 7 - - - - - - - 30.0 1011.0 0.0
21/10:00am S 5 6 - - - - - - - 29.9 1010.8 0.0
21/09:30am SSE 3 5 - - - - - - - 29.1 1011.0 0.0
21/09:00am NW 2 4 - - - - - - - 28.8 1010.8 0.0
21/08:30am SW 5 6 - - - - - - - 28.3 1010.1 0.0
21/08:00am S 5 7 - - - - - - - 27.6 1010.0 0.0
21/07:30am ESE 2 5 - - - - - - - 26.9 1010.1 0.0
21/07:00am ESE 5 8 - - - - - - - 27.3 1010.8 0.0
21/06:30am ESE 12 15 - - - - - - - 27.3 1011.1 0.0
21/06:00am E 13 17 - - - - - - - 27.6 1011.1 0.0
21/05:30am ENE 14 16 - - - - - - - 27.5 1011.0 0.0
21/05:00am NE 10 13 - - - - - - - 27.2 1010.7 0.0
21/04:30am ENE 13 15 - - - - - - - 27.6 1010.6 0.0
21/04:00am ENE 11 15 - - - - - - - 27.6 1009.9 0.0
21/03:30am E 8 11 - - - - - - - 27.7 1009.8 0.0
21/03:00am SSE 5 5 - - - - - - - 27.8 1010.1 0.0
21/02:30am S 5 7 - - - - - - - 27.9 1010.7 0.0
21/02:00am SW 9 13 - - - - - - - 27.7 1010.4 0.0
21/01:30am SW 9 11 - - - - - - - 27.0 1011.1 0.0
21/01:00am S 9 12 - - - - - - - 26.7 1011.5 0.0
21/12:30am S 12 15 - - - - - - - 26.5 1011.1 0.0
21/12:00am S 13 16 - - - - - - - 26.8 1011.1 0.0
 
Date/Time
CST
Wind Sea
Height
m
Swell Vis
km
Cloud Weather Temp
°C
Press
hPa
Rain since
9am
mm
Dir  Spd
kts
Gust
kts
Height
m
Period
s
Dir
20/11:30pm S 13 17 - - - - - - - 27.2 1011.3 0.0
20/11:00pm SW 16 21 - - - - - - - 28.8 1011.3 0.0
20/10:30pm W 15 18 - - - - - - - 29.9 1010.6 0.0
20/10:00pm W 15 19 - - - - - - - 29.8 1010.0 0.0
20/09:30pm W 16 18 - - - - - - - 29.9 1009.6 0.0
20/09:00pm W 14 17 - - - - - - - 30.1 1009.5 0.0
20/08:30pm W 16 19 - - - - - - - 30.1 1008.8 0.0
20/08:00pm WNW 17 20 - - - - - - - 30.0 1007.6 0.0
20/07:30pm WNW 17 21 - - - - - - - 30.2 1007.0 0.0
20/07:00pm W 18 22 - - - - - - - 30.5 1006.9 0.0
20/06:30pm WNW 16 20 - - - - - - - 30.9 1006.4 0.0
20/06:00pm WNW 17 20 - - - - - - - 31.4 1006.2 0.0
20/05:30pm W 16 19 - - - - - - - 31.7 1006.2 0.0
20/05:00pm W 13 16 - - - - - - - 31.8 1006.2 0.0
20/04:30pm W 14 17 - - - - - - - 32.6 1006.6 0.0
20/04:00pm W 13 15 - - - - - - - 32.4 1007.0 0.0
20/03:30pm W 14 17 - - - - - - - 32.9 1007.5 0.0
20/03:00pm W 14 16 - - - - - - - 32.9 1007.5 0.0
20/02:30pm W 14 16 - - - - - - - 32.1 1007.6 0.0
20/02:00pm WSW 14 17 - - - - - - - 33.1 1008.0 0.0
20/01:30pm W 15 17 - - - - - - - 32.8 1008.2 0.0
20/01:00pm W 15 17 - - - - - - - 32.9 1008.5 0.0
20/12:30pm W 14 17 - - - - - - - 32.2 1008.7 0.0
20/12:00pm W 14 18 - - - - - - - 32.6 1009.2 0.0
20/11:30am W 15 17 - - - - - - - 31.9 1009.5 0.0
20/11:00am WSW 14 16 - - - - - - - 31.2 1009.6 0.0
20/10:30am WSW 14 16 - - - - - - - 31.5 1009.6 0.0
20/10:00am W 12 15 - - - - - - - 31.2 1009.5 0.0
20/09:30am W 15 18 - - - - - - - 30.7 1009.1 0.0
20/09:00am W 15 17 - - - - - - - 30.5 1009.3 0.0
20/08:30am W 14 17 - - - - - - - 29.9 1009.2 0.0
20/08:00am W 14 17 - - - - - - - 29.2 1008.7 0.0
20/07:30am W 13 15 - - - - - - - 29.0 1008.5 0.0
20/07:00am W 13 16 - - - - - - - 28.9 1008.1 0.0
20/06:30am W 14 16 - - - - - - - 28.9 1007.6 0.0
20/06:00am W 15 17 - - - - - - - 28.9 1007.3 0.0
20/05:30am W 15 17 - - - - - - - 29.0 1007.2 0.0
20/05:00am W 15 18 - - - - - - - 29.1 1007.1 0.0
20/04:30am W 15 18 - - - - - - - 29.1 1006.8 0.0
20/04:00am W 15 18 - - - - - - - 29.2 1006.6 0.0
20/03:30am W 15 18 - - - - - - - 29.1 1007.0 0.0
20/03:00am W 16 19 - - - - - - - 29.1 1007.1 0.0
20/02:30am W 14 16 - - - - - - - 29.2 1007.1 0.0
20/02:00am W 15 18 - - - - - - - 29.3 1007.7 0.0
20/01:30am W 13 15 - - - - - - - 29.4 1008.0 0.0
20/01:00am W 15 17 - - - - - - - 29.4 1008.2 0.0
20/12:30am W 14 17 - - - - - - - 29.5 1008.3 0.0
20/12:00am W 13 15 - - - - - - - 29.5 1008.5 0.0
 
Date/Time
CST
Wind Sea
Height
m
Swell Vis
km
Cloud Weather Temp
°C
Press
hPa
Rain since
9am
mm
Dir  Spd
kts
Gust
kts
Height
m
Period
s
Dir
19/11:30pm W 13 16 - - - - - - - 29.6 1008.3 0.0
19/11:00pm W 13 15 - - - - - - - 29.7 1008.3 0.0
19/10:30pm W 14 16 - - - - - - - 29.7 1008.2 0.0
19/10:00pm W 15 17 - - - - - - - 29.8 1008.0 0.0
19/09:30pm W 14 17 - - - - - - - 29.9 1007.8 0.0

Other formats

Comma delimited format used in spreadsheet applications
http://www.bom.gov.au/fwo/IDD60701/IDD60701.94102.axf

JavaScript Object Notation format (JSON) in row-major order
http://www.bom.gov.au/fwo/IDD60701/IDD60701.94102.json

Data quality

Most of these data are generated automatically and are frequently updated. Quality checks on data are not normally performed. It is possible for incorrect values to appear. Refer to information at About Latest Weather Observations and please check the disclaimer before using these data.